createdAt,value
2018-12-02T00:00:17.379Z,6.70
2018-12-02T00:02:45.568Z,6.70
2018-12-02T00:05:13.802Z,6.70
2018-12-02T00:07:42.018Z,6.70
2018-12-02T00:10:11.573Z,6.70
2018-12-02T00:12:39.799Z,6.70
2018-12-02T00:15:26.306Z,6.70
2018-12-02T00:17:55.884Z,6.70
2018-12-02T00:20:24.090Z,6.80
2018-12-02T00:22:52.262Z,6.80
2018-12-02T00:25:20.486Z,6.80
2018-12-02T00:27:52.806Z,6.80
2018-12-02T00:30:26.996Z,6.80
2018-12-02T00:32:55.191Z,6.80
2018-12-02T00:35:23.397Z,6.80
2018-12-02T00:37:53.587Z,6.80
2018-12-02T00:40:22.373Z,6.80
2018-12-02T00:42:58.337Z,6.90
2018-12-02T00:45:29.866Z,6.90
2018-12-02T00:47:58.072Z,6.90
2018-12-02T00:50:26.328Z,6.90
2018-12-02T00:52:55.688Z,6.90
2018-12-02T00:55:28.173Z,7.00
2018-12-02T00:57:56.375Z,7.00
2018-12-02T01:00:24.561Z,7.00
2018-12-02T01:02:53.281Z,7.00
2018-12-02T01:05:22.175Z,7.00
2018-12-02T01:07:50.426Z,7.00
2018-12-02T01:10:22.643Z,7.00
2018-12-02T01:12:52.239Z,7.10
2018-12-02T01:15:22.285Z,7.10
2018-12-02T01:17:50.577Z,7.10
2018-12-02T01:20:19.733Z,7.10
2018-12-02T01:22:47.995Z,7.10
2018-12-02T01:25:16.319Z,7.10
2018-12-02T01:27:45.254Z,7.10
2018-12-02T01:30:14.813Z,7.10
2018-12-02T01:32:43.131Z,7.10
2018-12-02T01:35:11.703Z,7.10
2018-12-02T01:37:40.659Z,7.10
2018-12-02T01:40:10.391Z,7.10
2018-12-02T01:42:38.681Z,7.20
2018-12-02T01:45:09.719Z,7.20
2018-12-02T01:47:37.962Z,7.20
2018-12-02T01:50:09.031Z,7.20
2018-12-02T01:52:37.362Z,7.20
2018-12-02T01:55:06.193Z,7.20
2018-12-02T01:57:34.478Z,7.30
2018-12-02T02:00:03.258Z,7.30
2018-12-02T02:02:31.533Z,7.30
2018-12-02T02:04:59.752Z,7.30
2018-12-02T02:07:28.011Z,7.30
2018-12-02T02:09:56.261Z,7.30
2018-12-02T02:12:24.466Z,7.30
2018-12-02T02:14:52.670Z,7.30
2018-12-02T02:17:20.870Z,7.40
2018-12-02T02:19:49.077Z,7.40
2018-12-02T02:22:17.267Z,7.40
2018-12-02T02:24:45.729Z,7.40
2018-12-02T02:27:13.985Z,7.40
2018-12-02T02:29:42.247Z,7.40
2018-12-02T02:32:10.502Z,7.40
2018-12-02T02:34:39.143Z,7.40
2018-12-02T02:37:07.483Z,7.40
2018-12-02T02:39:35.867Z,7.40
2018-12-02T02:42:04.129Z,7.40
2018-12-02T02:44:32.297Z,7.40
2018-12-02T02:47:00.481Z,7.40
2018-12-02T02:49:28.661Z,7.40
2018-12-02T02:51:56.873Z,7.40
2018-12-02T02:54:25.065Z,7.40
2018-12-02T02:56:53.385Z,7.40
2018-12-02T02:59:21.641Z,7.50
2018-12-02T03:01:49.830Z,7.50
2018-12-02T03:04:18.036Z,7.50
2018-12-02T03:06:46.323Z,7.50
2018-12-02T03:09:14.485Z,7.50
2018-12-02T03:11:42.720Z,7.50
2018-12-02T03:14:11.014Z,7.50
2018-12-02T03:16:39.528Z,7.50
2018-12-02T03:19:07.870Z,7.50
2018-12-02T03:21:36.101Z,7.50
2018-12-02T03:24:04.324Z,7.50
2018-12-02T03:26:32.566Z,7.50
2018-12-02T03:29:00.810Z,7.50
2018-12-02T03:31:28.996Z,7.50
2018-12-02T03:33:57.182Z,7.50
2018-12-02T03:36:25.412Z,7.50
2018-12-02T03:38:53.629Z,7.60
2018-12-02T03:41:21.888Z,7.50
2018-12-02T03:43:50.074Z,7.50
2018-12-02T03:46:18.297Z,7.60
2018-12-02T03:48:46.469Z,7.60
2018-12-02T03:51:14.659Z,7.60
2018-12-02T03:53:42.867Z,7.60
2018-12-02T03:56:15.346Z,7.60
2018-12-02T03:58:43.575Z,7.60
2018-12-02T04:01:11.797Z,7.60
2018-12-02T04:03:40.007Z,7.60
2018-12-02T04:06:08.184Z,7.60
2018-12-02T04:08:36.387Z,7.60
2018-12-02T04:11:05.070Z,7.60
2018-12-02T04:13:33.265Z,7.60
2018-12-02T04:16:01.663Z,7.60
2018-12-02T04:18:29.949Z,7.60
2018-12-02T04:20:58.158Z,7.60
2018-12-02T04:23:26.455Z,7.60
2018-12-02T04:25:54.708Z,7.60
2018-12-02T04:28:22.903Z,7.60
2018-12-02T04:30:51.226Z,7.60
2018-12-02T04:33:19.440Z,7.60
2018-12-02T04:35:47.719Z,7.60
2018-12-02T04:38:15.925Z,7.60
2018-12-02T04:40:44.139Z,7.60
2018-12-02T04:43:12.371Z,7.60
2018-12-02T04:45:40.594Z,7.60
2018-12-02T04:48:08.786Z,7.60
2018-12-02T04:50:37.010Z,7.60
2018-12-02T04:53:05.724Z,7.70
2018-12-02T04:55:33.947Z,7.70
2018-12-02T04:58:02.498Z,7.70
2018-12-02T05:00:30.694Z,7.70
2018-12-02T05:02:58.908Z,7.70
2018-12-02T05:05:27.149Z,7.70
2018-12-02T05:07:55.360Z,7.70
2018-12-02T05:10:23.553Z,7.70
2018-12-02T05:12:52.287Z,7.70
2018-12-02T05:15:22.170Z,7.70
2018-12-02T05:17:50.419Z,7.70
2018-12-02T05:20:19.500Z,7.70
2018-12-02T05:22:47.788Z,7.70
2018-12-02T05:25:17.845Z,7.70
2018-12-02T05:27:44.885Z,7.80
2018-12-02T05:30:16.790Z,7.80
2018-12-02T05:32:45.661Z,7.70
2018-12-02T05:35:14.322Z,7.80
2018-12-02T05:37:42.618Z,7.80
2018-12-02T05:40:15.660Z,7.80
2018-12-02T05:42:43.977Z,7.80
2018-12-02T05:45:13.936Z,7.80
2018-12-02T05:47:42.145Z,7.80
2018-12-02T05:50:11.691Z,7.90
2018-12-02T05:52:39.887Z,7.80
2018-12-02T05:55:10.150Z,7.80
2018-12-02T05:57:38.370Z,7.80
2018-12-02T06:00:09.889Z,7.80
2018-12-02T06:02:39.526Z,7.90
2018-12-02T06:05:07.254Z,7.80
2018-12-02T06:07:35.653Z,7.90
2018-12-02T06:10:06.100Z,7.80
2018-12-02T06:12:34.340Z,7.90
2018-12-02T06:15:02.570Z,7.90
2018-12-02T06:17:30.770Z,7.90
2018-12-02T06:20:04.542Z,7.90
2018-12-02T06:22:27.231Z,7.90
2018-12-02T06:24:55.504Z,7.90
2018-12-02T06:27:23.711Z,7.90
2018-12-02T06:29:51.943Z,7.90
2018-12-02T06:32:20.136Z,7.90
2018-12-02T06:34:48.373Z,7.90
2018-12-02T06:37:16.584Z,7.90
2018-12-02T06:39:44.813Z,7.90
2018-12-02T06:42:13.016Z,7.90
2018-12-02T06:44:41.248Z,7.90
2018-12-02T06:47:09.470Z,8.00
2018-12-02T06:49:37.736Z,8.00
2018-12-02T06:52:06.608Z,8.00
2018-12-02T06:54:34.847Z,8.00
2018-12-02T06:57:03.053Z,8.00
2018-12-02T06:59:38.004Z,8.00
2018-12-02T07:02:11.529Z,8.00
2018-12-02T07:04:41.481Z,8.00
2018-12-02T07:07:09.990Z,8.00
2018-12-02T07:09:38.272Z,8.00
2018-12-02T07:12:06.737Z,8.10
2018-12-02T07:14:34.983Z,8.10
2018-12-02T07:17:03.204Z,8.10
2018-12-02T07:19:36.402Z,8.10
2018-12-02T07:22:12.708Z,8.10
2018-12-02T07:24:41.081Z,8.10
2018-12-02T07:27:09.349Z,8.10
2018-12-02T07:29:37.624Z,8.20
2018-12-02T07:32:06.550Z,8.20
2018-12-02T07:34:34.770Z,8.20
2018-12-02T07:37:06.723Z,8.20
2018-12-02T07:40:00.086Z,8.20
2018-12-02T07:42:28.501Z,8.20
2018-12-02T07:44:56.773Z,8.20
2018-12-02T07:47:24.978Z,8.20
2018-12-02T07:49:53.210Z,8.30
2018-12-02T07:52:21.502Z,8.30
2018-12-02T07:54:50.023Z,8.30
2018-12-02T07:57:21.979Z,8.30
2018-12-02T07:59:53.605Z,8.40
2018-12-02T08:02:21.897Z,8.40
2018-12-02T08:04:50.195Z,8.40
2018-12-02T08:07:18.571Z,8.40
2018-12-02T08:09:46.897Z,8.40
2018-12-02T08:12:15.279Z,8.40
2018-12-02T08:14:43.518Z,8.50
2018-12-02T08:17:11.741Z,8.50
2018-12-02T08:19:40.321Z,8.50
2018-12-02T08:22:08.574Z,8.50
2018-12-02T08:24:36.791Z,8.50
2018-12-02T08:27:05.217Z,8.50
2018-12-02T08:29:33.466Z,8.60
2018-12-02T08:32:01.700Z,8.60
2018-12-02T08:34:30.310Z,8.60
2018-12-02T08:36:58.606Z,8.60
2018-12-02T08:39:27.077Z,8.60
2018-12-02T08:41:56.530Z,8.60
2018-12-02T08:44:24.775Z,8.60
2018-12-02T08:46:53.120Z,8.60
2018-12-02T08:49:21.365Z,8.60
2018-12-02T08:51:50.031Z,8.70
2018-12-02T08:54:19.702Z,8.70
2018-12-02T08:56:50.531Z,8.80
2018-12-02T08:59:18.822Z,8.80
2018-12-02T09:01:47.274Z,8.80
2018-12-02T09:04:16.249Z,8.80
2018-12-02T09:06:44.606Z,8.80
2018-12-02T09:09:12.915Z,8.80
2018-12-02T09:11:41.316Z,8.80
2018-12-02T09:14:10.795Z,8.80
2018-12-02T09:16:39.129Z,8.90
2018-12-02T09:19:07.490Z,8.90
2018-12-02T09:21:35.758Z,8.90
2018-12-02T09:24:04.107Z,8.90
2018-12-02T09:26:32.603Z,9.00
2018-12-02T09:29:00.904Z,9.00
2018-12-02T09:31:29.360Z,9.00
2018-12-02T09:33:57.729Z,9.00
2018-12-02T09:36:26.297Z,9.00
2018-12-02T09:38:54.960Z,9.00
2018-12-02T09:41:23.327Z,9.00
2018-12-02T09:43:51.767Z,9.00
2018-12-02T09:46:20.554Z,9.10
2018-12-02T09:48:49.055Z,9.10
2018-12-02T09:51:18.389Z,9.10
2018-12-02T09:53:46.732Z,9.10
2018-12-02T09:56:15.156Z,9.10
2018-12-02T09:58:43.358Z,9.10
2018-12-02T10:01:11.782Z,9.20
2018-12-02T10:03:40.166Z,9.20
2018-12-02T10:06:08.439Z,9.20
2018-12-02T10:08:36.886Z,9.20
2018-12-02T10:11:05.822Z,9.20
2018-12-02T10:13:34.177Z,9.20
2018-12-02T10:16:02.398Z,9.20
2018-12-02T10:18:30.677Z,9.30
2018-12-02T10:20:59.131Z,9.30
2018-12-02T10:23:27.579Z,9.30
2018-12-02T10:25:56.055Z,9.30
2018-12-02T10:28:24.467Z,9.30
2018-12-02T10:30:52.755Z,9.30
2018-12-02T10:33:21.311Z,9.40
2018-12-02T10:35:49.524Z,9.40
2018-12-02T10:38:18.850Z,9.40
2018-12-02T10:40:51.499Z,9.40
2018-12-02T10:43:20.120Z,9.50
2018-12-02T10:45:48.478Z,9.50
2018-12-02T10:48:16.746Z,9.50
2018-12-02T10:50:45.257Z,9.60
2018-12-02T10:53:15.414Z,9.60
2018-12-02T10:55:48.004Z,9.60
2018-12-02T10:58:23.558Z,9.70
2018-12-02T11:00:58.513Z,9.70
2018-12-02T11:03:27.393Z,9.70
2018-12-02T11:05:56.020Z,9.80
2018-12-02T11:08:24.403Z,9.80
2018-12-02T11:10:52.884Z,9.80
2018-12-02T11:13:21.215Z,9.90
2018-12-02T11:15:49.701Z,9.90
2018-12-02T11:18:18.130Z,10.00
2018-12-02T11:20:50.026Z,10.00
2018-12-02T11:23:18.279Z,10.00
2018-12-02T11:25:47.099Z,10.00
2018-12-02T11:28:15.465Z,10.00
2018-12-02T11:30:43.678Z,10.10
2018-12-02T11:33:12.011Z,10.10
2018-12-02T11:35:40.981Z,10.10
2018-12-02T11:38:09.148Z,10.20
2018-12-02T11:40:38.531Z,10.20
2018-12-02T11:43:07.775Z,10.20
2018-12-02T11:45:36.163Z,10.20
2018-12-02T11:48:04.653Z,10.20
2018-12-02T11:50:34.095Z,10.20
2018-12-02T11:53:02.382Z,10.20
2018-12-02T11:55:30.762Z,10.20
2018-12-02T11:57:59.146Z,10.30
2018-12-02T12:00:28.802Z,10.30
2018-12-02T12:02:57.915Z,10.30
2018-12-02T12:05:26.349Z,10.30
2018-12-02T12:07:54.770Z,10.30
2018-12-02T12:10:26.279Z,10.20
2018-12-02T12:12:55.799Z,10.30
2018-12-02T12:15:24.966Z,10.30
2018-12-02T12:17:53.983Z,10.40
2018-12-02T12:20:26.303Z,10.40
2018-12-02T12:22:54.867Z,10.40
2018-12-02T12:25:23.325Z,10.40
2018-12-02T12:27:53.034Z,10.40
2018-12-02T12:30:22.903Z,10.40
2018-12-02T12:32:51.358Z,10.30
2018-12-02T12:35:19.741Z,10.30
2018-12-02T12:37:48.182Z,10.30
2018-12-02T12:40:28.258Z,10.30
2018-12-02T12:43:02.441Z,10.30
2018-12-02T12:45:30.848Z,10.30
2018-12-02T12:47:59.256Z,10.30
2018-12-02T12:50:27.498Z,10.30
2018-12-02T12:52:55.855Z,10.30
2018-12-02T12:55:24.276Z,10.30
2018-12-02T12:57:52.639Z,10.30
2018-12-02T13:00:22.835Z,10.30
2018-12-02T13:02:51.357Z,10.30
2018-12-02T13:05:22.624Z,10.30
2018-12-02T13:07:51.143Z,10.30
2018-12-02T13:10:19.621Z,10.40
2018-12-02T13:12:48.063Z,10.40
2018-12-02T13:15:23.389Z,10.40
2018-12-02T13:17:55.022Z,10.40
2018-12-02T13:20:23.834Z,10.40
2018-12-02T13:22:52.112Z,10.40
2018-12-02T13:25:20.962Z,10.50
2018-12-02T13:27:49.189Z,10.50
2018-12-02T13:30:18.509Z,10.40
2018-12-02T13:32:47.944Z,10.50
2018-12-02T13:35:16.213Z,10.50
2018-12-02T13:37:44.510Z,10.50
2018-12-02T13:40:13.934Z,10.60
2018-12-02T13:42:43.127Z,10.60
2018-12-02T13:45:16.793Z,10.60
2018-12-02T13:47:45.145Z,10.60
2018-12-02T13:50:16.453Z,10.60
2018-12-02T13:52:45.071Z,10.70
2018-12-02T13:55:17.319Z,10.70
2018-12-02T13:57:46.187Z,10.70
2018-12-02T14:00:16.575Z,10.70
2018-12-02T14:02:47.083Z,10.70
2018-12-02T14:05:15.309Z,10.60
2018-12-02T14:07:43.712Z,10.70
2018-12-02T14:10:13.020Z,10.60
2018-12-02T14:12:51.064Z,10.60
2018-12-02T14:16:29.551Z,10.60
2018-12-02T14:18:59.640Z,10.60
2018-12-02T14:21:28.000Z,10.60
2018-12-02T14:23:56.275Z,10.60
2018-12-02T14:26:24.766Z,10.60
2018-12-02T14:29:02.987Z,10.60
2018-12-02T14:31:34.006Z,10.60
2018-12-02T14:34:02.387Z,10.60
2018-12-02T14:36:30.687Z,10.60
2018-12-02T14:38:59.130Z,10.70
2018-12-02T14:41:27.376Z,10.60
2018-12-02T14:43:55.756Z,10.60
2018-12-02T14:46:24.238Z,10.70
2018-12-02T14:48:52.715Z,10.70
2018-12-02T14:51:21.153Z,10.70
2018-12-02T14:53:49.583Z,10.70
2018-12-02T14:56:18.974Z,10.70
2018-12-02T14:58:47.376Z,10.70
2018-12-02T15:01:16.263Z,10.70
2018-12-02T15:03:48.058Z,10.70
2018-12-02T15:06:16.651Z,10.70
2018-12-02T15:08:45.124Z,10.70
2018-12-02T15:11:13.526Z,10.80
2018-12-02T15:13:41.948Z,10.70
2018-12-02T15:16:11.349Z,10.80
2018-12-02T15:18:39.778Z,10.80
2018-12-02T15:21:08.197Z,10.80
2018-12-02T15:23:36.620Z,10.80
2018-12-02T15:26:05.223Z,10.80
2018-12-02T15:28:33.983Z,10.80
2018-12-02T15:31:02.636Z,10.80
2018-12-02T15:33:31.037Z,10.80
2018-12-02T15:35:59.442Z,10.90
2018-12-02T15:38:27.962Z,10.90
2018-12-02T15:40:56.506Z,10.80
2018-12-02T15:43:25.109Z,10.80
2018-12-02T15:45:53.659Z,10.80
2018-12-02T15:48:23.225Z,10.90
2018-12-02T15:50:51.466Z,10.90
2018-12-02T15:53:19.758Z,10.90
2018-12-02T15:55:48.091Z,10.90
2018-12-02T15:58:16.323Z,10.90
2018-12-02T16:00:45.811Z,10.80
2018-12-02T16:03:14.403Z,10.80
2018-12-02T16:05:42.857Z,10.80
2018-12-02T16:08:11.311Z,10.80
2018-12-02T16:10:39.578Z,10.80
2018-12-02T16:13:09.501Z,10.80
2018-12-02T16:15:37.990Z,10.80
2018-12-02T16:18:08.977Z,10.80
2018-12-02T16:20:41.523Z,10.80
2018-12-02T16:23:09.951Z,10.80
2018-12-02T16:25:39.499Z,10.80
2018-12-02T16:28:07.748Z,10.80
2018-12-02T16:30:36.229Z,10.80
2018-12-02T16:33:04.811Z,10.80
2018-12-02T16:35:34.159Z,10.80
2018-12-02T16:38:02.638Z,10.90
2018-12-02T16:40:31.061Z,10.90
2018-12-02T16:42:59.451Z,10.90
2018-12-02T16:45:27.790Z,10.90
2018-12-02T16:47:57.425Z,10.80
2018-12-02T16:50:32.936Z,10.90
2018-12-02T16:53:06.912Z,10.90
2018-12-02T16:55:40.767Z,10.90
2018-12-02T16:58:15.608Z,10.90
2018-12-02T17:00:48.357Z,10.90
2018-12-02T17:03:16.831Z,10.80
2018-12-02T17:05:45.430Z,10.90
2018-12-02T17:08:13.782Z,10.80
2018-12-02T17:10:42.079Z,10.80
2018-12-02T17:13:10.544Z,10.80
2018-12-02T17:15:39.893Z,10.80
2018-12-02T17:18:08.199Z,10.80
2018-12-02T17:20:36.918Z,10.80
2018-12-02T17:23:05.464Z,10.80
2018-12-02T17:25:33.806Z,10.80
2018-12-02T17:28:02.107Z,10.80
2018-12-02T17:30:37.671Z,10.80
2018-12-02T17:33:06.692Z,10.80
2018-12-02T17:35:35.231Z,10.80
2018-12-02T17:38:03.577Z,10.80
2018-12-02T17:40:31.830Z,10.80
2018-12-02T17:43:00.729Z,10.70
2018-12-02T17:45:29.065Z,10.70
2018-12-02T17:47:57.293Z,10.70
2018-12-02T17:50:25.579Z,10.70
2018-12-02T17:52:53.801Z,10.70
2018-12-02T17:55:22.103Z,10.70
2018-12-02T17:57:50.497Z,10.70
2018-12-02T18:00:22.442Z,10.70
2018-12-02T18:02:50.810Z,10.70
2018-12-02T18:05:21.752Z,10.80
2018-12-02T18:07:50.553Z,10.70
2018-12-02T18:10:22.417Z,10.70
2018-12-02T18:12:54.586Z,10.70
2018-12-02T18:15:26.055Z,10.80
2018-12-02T18:17:54.626Z,10.80
2018-12-02T18:20:22.999Z,10.80
2018-12-02T18:22:51.444Z,10.80
2018-12-02T18:25:19.930Z,10.80
2018-12-02T18:27:48.446Z,10.80
2018-12-02T18:30:24.024Z,10.80
2018-12-02T18:32:56.887Z,10.80
2018-12-02T18:35:32.173Z,10.80
2018-12-02T18:38:05.459Z,10.90
2018-12-02T18:40:34.357Z,10.90
2018-12-02T18:43:02.934Z,10.90
2018-12-02T18:45:31.892Z,10.90
2018-12-02T18:48:00.302Z,10.90
2018-12-02T18:50:28.823Z,10.90
2018-12-02T18:52:57.133Z,10.90
2018-12-02T18:55:25.556Z,10.90
2018-12-02T18:57:53.938Z,10.90
2018-12-02T19:00:31.549Z,10.80
2018-12-02T19:03:05.743Z,10.90
2018-12-02T19:05:34.485Z,10.80
2018-12-02T19:08:03.808Z,10.80
2018-12-02T19:10:32.258Z,10.70
2018-12-02T19:13:01.353Z,10.70
2018-12-02T19:15:30.513Z,10.70
2018-12-02T19:17:58.984Z,10.70
2018-12-02T19:20:29.304Z,10.70
2018-12-02T19:23:00.192Z,10.70
2018-12-02T19:25:29.443Z,10.70
2018-12-02T19:27:57.834Z,10.70
2018-12-02T19:30:26.159Z,10.70
2018-12-02T19:32:54.676Z,10.70
2018-12-02T19:35:33.334Z,10.70
2018-12-02T19:38:08.139Z,10.70
2018-12-02T19:40:36.496Z,10.70
2018-12-02T19:43:05.178Z,10.80
2018-12-02T19:45:33.607Z,10.80
2018-12-02T19:48:02.355Z,10.80
2018-12-02T19:50:30.694Z,10.80
2018-12-02T19:52:58.953Z,10.90
2018-12-02T19:55:27.396Z,10.90
2018-12-02T19:57:55.769Z,10.90
2018-12-02T20:00:31.127Z,10.90
2018-12-02T20:02:59.485Z,10.90
2018-12-02T20:05:28.036Z,10.90
2018-12-02T20:07:58.127Z,11.00
2018-12-02T20:10:27.674Z,11.00
2018-12-02T20:12:57.401Z,11.00
2018-12-02T20:15:25.622Z,11.00
2018-12-02T20:17:53.881Z,11.10
2018-12-02T20:20:27.920Z,11.10
2018-12-02T20:22:56.311Z,11.10
2018-12-02T20:25:25.421Z,11.10
2018-12-02T20:27:56.680Z,11.20
2018-12-02T20:30:24.957Z,11.20
2018-12-02T20:32:53.246Z,11.10
2018-12-02T20:35:21.713Z,11.20
2018-12-02T20:37:50.228Z,11.20
2018-12-02T20:40:20.699Z,11.20
2018-12-02T20:42:49.979Z,11.20
2018-12-02T20:45:18.768Z,11.20
2018-12-02T20:47:47.128Z,11.20
2018-12-02T20:50:17.731Z,11.20
2018-12-02T20:52:46.941Z,11.20
2018-12-02T20:55:18.034Z,11.10
2018-12-02T20:57:46.557Z,11.20
2018-12-02T21:00:17.459Z,11.20
2018-12-02T21:02:47.605Z,11.20
2018-12-02T21:05:20.318Z,11.20
2018-12-02T21:07:49.322Z,11.20
2018-12-02T21:10:17.602Z,11.10
2018-12-02T21:12:45.966Z,11.10
2018-12-02T21:15:14.725Z,11.10
2018-12-02T21:17:43.164Z,11.10
2018-12-02T21:20:12.476Z,11.10
2018-12-02T21:22:40.797Z,11.10
2018-12-02T21:25:16.623Z,11.10
2018-12-02T21:27:44.966Z,11.10
2018-12-02T21:30:15.715Z,11.10
2018-12-02T21:32:44.181Z,11.10
2018-12-02T21:35:12.747Z,11.00
2018-12-02T21:37:41.248Z,11.00
2018-12-02T21:40:12.637Z,11.00
2018-12-02T21:42:41.126Z,11.00
2018-12-02T21:45:11.455Z,11.00
2018-12-02T21:47:41.362Z,11.00
2018-12-02T21:50:17.181Z,11.00
2018-12-02T21:52:45.571Z,11.00
2018-12-02T21:55:14.366Z,11.10
2018-12-02T21:57:42.685Z,11.10
2018-12-02T22:00:22.030Z,11.10
2018-12-02T22:02:51.220Z,11.10
2018-12-02T22:05:19.500Z,11.10
2018-12-02T22:07:50.183Z,11.10
2018-12-02T22:10:19.827Z,11.10
2018-12-02T22:12:48.029Z,11.10
2018-12-02T22:15:16.612Z,11.20
2018-12-02T22:17:45.036Z,11.20
2018-12-02T22:20:14.306Z,11.10
2018-12-02T22:22:42.687Z,11.20
2018-12-02T22:25:13.267Z,11.20
2018-12-02T22:27:43.852Z,11.20
2018-12-02T22:30:20.068Z,11.20
2018-12-02T22:32:48.377Z,11.20
2018-12-02T22:35:16.847Z,11.10
2018-12-02T22:37:46.032Z,11.20
2018-12-02T22:40:17.167Z,11.20
2018-12-02T22:42:45.483Z,11.20
2018-12-02T22:45:15.107Z,11.20
2018-12-02T22:47:43.355Z,11.20
2018-12-02T22:50:14.637Z,11.20
2018-12-02T22:52:43.174Z,11.20
2018-12-02T22:55:11.803Z,11.20
2018-12-02T22:57:40.052Z,11.20
2018-12-02T23:00:48.707Z,11.20
2018-12-02T23:03:23.307Z,11.20
2018-12-02T23:05:51.775Z,11.20
2018-12-02T23:08:20.045Z,11.20
2018-12-02T23:10:49.044Z,11.20
2018-12-02T23:13:17.469Z,11.20
2018-12-02T23:15:45.896Z,11.20
2018-12-02T23:18:14.491Z,11.20
2018-12-02T23:20:42.822Z,11.20
2018-12-02T23:23:11.034Z,11.20
2018-12-02T23:25:39.285Z,11.20
2018-12-02T23:28:08.066Z,11.20
2018-12-02T23:30:37.431Z,11.20
2018-12-02T23:33:06.695Z,11.30
2018-12-02T23:35:35.286Z,11.30
2018-12-02T23:38:54.415Z,11.30
2018-12-02T23:44:06.542Z,11.30
2018-12-02T23:46:35.435Z,11.30
2018-12-02T23:51:37.822Z,11.30
2018-12-02T23:59:14.436Z,11.30
